createdAt,value
2023-09-23T00:01:27.024Z,100721.66
2023-09-23T00:03:54.005Z,100725.84
2023-09-23T00:06:23.581Z,100721.47
2023-09-23T00:08:50.202Z,100723.16
2023-09-23T00:11:16.778Z,100731.06
2023-09-23T00:13:43.988Z,100734.59
2023-09-23T00:16:12.518Z,100738.13
2023-09-23T00:18:39.478Z,100733.13
2023-09-23T00:21:09.234Z,100745.81
2023-09-23T00:23:35.942Z,100754.97
2023-09-23T00:26:03.800Z,100753.09
2023-09-23T00:28:32.159Z,100759.97
2023-09-23T00:31:06.596Z,100765.78
2023-09-23T00:33:39.107Z,100768.09
2023-09-23T00:36:08.394Z,100771.19
2023-09-23T00:38:35.106Z,100766.63
2023-09-23T00:41:02.204Z,100764.97
2023-09-23T00:43:28.627Z,100760.59
2023-09-23T00:45:59.818Z,100764.34
2023-09-23T00:48:26.567Z,100763.69
2023-09-23T00:50:55.825Z,100766.00
2023-09-23T00:53:23.231Z,100761.03
2023-09-23T00:55:53.743Z,100767.22
2023-09-23T00:58:22.661Z,100762.88
2023-09-23T01:00:50.311Z,100757.47
2023-09-23T01:03:17.242Z,100751.44
2023-09-23T01:05:45.216Z,100757.91
2023-09-23T01:08:22.069Z,100755.59
2023-09-23T01:10:49.484Z,100761.19
2023-09-23T01:13:17.587Z,100761.22
2023-09-23T01:15:44.395Z,100767.03
2023-09-23T01:18:25.658Z,100776.81
2023-09-23T01:20:57.140Z,100778.63
2023-09-23T01:23:23.656Z,100775.72
2023-09-23T01:25:50.155Z,100772.63
2023-09-23T01:28:16.661Z,100770.31
2023-09-23T01:30:46.877Z,100773.66
2023-09-23T01:33:15.372Z,100780.09
2023-09-23T01:35:43.053Z,100779.69
2023-09-23T01:38:09.569Z,100785.50
2023-09-23T01:40:39.487Z,100789.22
2023-09-23T01:43:07.621Z,100788.63
2023-09-23T01:45:34.038Z,100794.63
2023-09-23T01:48:00.569Z,100784.44
2023-09-23T01:50:28.934Z,100788.81
2023-09-23T01:53:00.425Z,100802.97
2023-09-23T01:55:27.993Z,100804.00
2023-09-23T01:57:54.646Z,100804.19
2023-09-23T02:00:30.184Z,100805.22
2023-09-23T02:02:58.202Z,100808.78
2023-09-23T02:05:28.423Z,100813.56
2023-09-23T02:07:55.760Z,100816.28
2023-09-23T02:10:25.532Z,100808.78
2023-09-23T02:12:52.207Z,100812.06
2023-09-23T02:15:18.707Z,100813.34
2023-09-23T02:17:46.366Z,100825.38
2023-09-23T02:20:20.461Z,100817.47
2023-09-23T02:22:54.474Z,100818.06
2023-09-23T02:25:25.866Z,100823.72
2023-09-23T02:27:53.393Z,100824.31
2023-09-23T02:30:20.075Z,100827.66
2023-09-23T02:32:48.057Z,100821.22
2023-09-23T02:35:17.061Z,100822.25
2023-09-23T02:37:46.236Z,100829.09
2023-09-23T02:40:15.307Z,100832.63
2023-09-23T02:42:43.479Z,100832.84
2023-09-23T02:45:10.958Z,100826.19
2023-09-23T02:47:38.683Z,100834.06
2023-09-23T02:50:10.756Z,100829.72
2023-09-23T02:52:40.042Z,100828.50
2023-09-23T02:55:14.264Z,100827.84
2023-09-23T02:57:42.489Z,100828.88
2023-09-23T03:00:17.807Z,100833.66
2023-09-23T03:02:46.859Z,100832.41
2023-09-23T03:05:17.830Z,100835.13
2023-09-23T03:07:51.345Z,100840.75
2023-09-23T03:10:31.092Z,100847.19
2023-09-23T03:13:03.515Z,100843.84
2023-09-23T03:15:35.575Z,100852.34
2023-09-23T03:18:02.460Z,100848.81
2023-09-23T03:20:29.145Z,100855.66
2023-09-23T03:22:55.770Z,100853.34
2023-09-23T03:25:22.388Z,100857.31
2023-09-23T03:27:49.968Z,100845.84
2023-09-23T03:30:18.217Z,100858.16
2023-09-23T03:32:48.115Z,100852.75
2023-09-23T03:35:18.632Z,100856.66
2023-09-23T03:37:50.786Z,100851.25
2023-09-23T03:40:22.213Z,100852.28
2023-09-23T03:42:49.568Z,100857.50
2023-09-23T03:45:16.332Z,100864.97
2023-09-23T03:47:42.943Z,100867.88
2023-09-23T03:50:09.719Z,100868.06
2023-09-23T03:52:37.822Z,100870.97
2023-09-23T03:55:05.035Z,100865.56
2023-09-23T03:57:31.321Z,100867.44
2023-09-23T03:59:57.627Z,100870.56
2023-09-23T04:02:24.350Z,100877.63
2023-09-23T04:04:54.947Z,100880.31
2023-09-23T04:07:22.141Z,100877.81
2023-09-23T04:09:49.167Z,100890.47
2023-09-23T04:12:15.643Z,100889.84
2023-09-23T04:14:42.475Z,100897.13
2023-09-23T04:17:08.979Z,100906.44
2023-09-23T04:19:35.439Z,100900.63
2023-09-23T04:22:01.828Z,100902.53
2023-09-23T04:24:28.219Z,100904.41
2023-09-23T04:26:54.960Z,100920.59
2023-09-23T04:29:22.222Z,100912.50
2023-09-23T04:31:50.446Z,100923.06
2023-09-23T04:34:18.308Z,100920.56
2023-09-23T04:36:45.947Z,100925.97
2023-09-23T04:39:12.422Z,100932.56
2023-09-23T04:41:41.298Z,100932.56
2023-09-23T04:44:08.697Z,100936.53
2023-09-23T04:46:35.127Z,100935.69
2023-09-23T04:49:01.602Z,100945.47
2023-09-23T04:51:27.945Z,100940.69
2023-09-23T04:53:54.432Z,100951.94
2023-09-23T04:56:21.195Z,100955.25
2023-09-23T04:58:47.858Z,100954.63
2023-09-23T05:01:15.452Z,100954.81
2023-09-23T05:03:43.355Z,100954.22
2023-09-23T05:06:11.609Z,100952.78
2023-09-23T05:08:38.201Z,100955.84
2023-09-23T05:11:07.629Z,100953.34
2023-09-23T05:13:34.031Z,100961.44
2023-09-23T05:16:00.584Z,100967.69
2023-09-23T05:18:27.127Z,100975.59
2023-09-23T05:20:53.790Z,100979.13
2023-09-23T05:23:24.169Z,100988.25
2023-09-23T05:25:51.355Z,100989.09
2023-09-23T05:28:17.726Z,100988.69
2023-09-23T05:30:44.136Z,100997.25
2023-09-23T05:33:11.859Z,100998.94
2023-09-23T05:35:39.373Z,101000.56
2023-09-23T05:38:06.143Z,100998.72
2023-09-23T05:40:37.530Z,100996.84
2023-09-23T05:43:04.408Z,101005.41
2023-09-23T05:45:31.156Z,101008.91
2023-09-23T05:47:57.664Z,101002.50
2023-09-23T05:50:24.518Z,101013.94
2023-09-23T05:52:51.285Z,101022.06
2023-09-23T05:55:17.867Z,101025.78
2023-09-23T05:57:45.082Z,101030.16
2023-09-23T06:00:13.384Z,101039.94
2023-09-23T06:02:40.542Z,101049.72
2023-09-23T06:05:07.280Z,101050.34
2023-09-23T06:07:33.704Z,101058.44
2023-09-23T06:10:01.105Z,101067.38
2023-09-23T06:12:30.606Z,101071.75
2023-09-23T06:15:01.108Z,101072.38
2023-09-23T06:17:33.607Z,101070.50
2023-09-23T06:20:01.265Z,101070.91
2023-09-23T06:22:28.672Z,101082.38
2023-09-23T06:24:55.816Z,101075.91
2023-09-23T06:27:22.331Z,101079.47
2023-09-23T06:29:48.988Z,101078.44
2023-09-23T06:32:15.409Z,101080.09
2023-09-23T06:34:41.845Z,101084.28
2023-09-23T06:37:08.512Z,101093.03
2023-09-23T06:39:34.940Z,101086.19
2023-09-23T06:42:01.438Z,101091.00
2023-09-23T06:44:27.994Z,101096.22
2023-09-23T06:46:54.613Z,101100.19
2023-09-23T06:49:21.166Z,101106.91
2023-09-23T06:51:47.584Z,101113.94
2023-09-23T06:54:14.050Z,101109.00
2023-09-23T06:56:40.519Z,101111.53
2023-09-23T06:59:07.042Z,101109.28
2023-09-23T07:01:35.933Z,101115.97
2023-09-23T07:04:03.397Z,101124.69
2023-09-23T07:06:30.051Z,101118.94
2023-09-23T07:08:56.926Z,101135.41
2023-09-23T07:11:24.753Z,101135.00
2023-09-23T07:13:51.818Z,101130.25
2023-09-23T07:16:18.454Z,101142.72
2023-09-23T07:18:45.936Z,101150.84
2023-09-23T07:21:13.201Z,101148.75
2023-09-23T07:23:39.806Z,101155.06
2023-09-23T07:26:06.800Z,101154.25
2023-09-23T07:28:33.325Z,101161.53
2023-09-23T07:30:59.781Z,101163.59
2023-09-23T07:33:26.231Z,101164.47
2023-09-23T07:35:52.708Z,101163.69
2023-09-23T07:38:19.192Z,101160.00
2023-09-23T07:40:45.772Z,101166.06
2023-09-23T07:43:12.241Z,101174.66
2023-09-23T07:45:38.704Z,101182.38
2023-09-23T07:48:05.532Z,101182.25
2023-09-23T07:50:32.739Z,101186.63
2023-09-23T07:52:59.431Z,101200.78
2023-09-23T07:55:25.921Z,101199.31
2023-09-23T07:57:53.316Z,101206.38
2023-09-23T08:00:20.957Z,101207.22
2023-09-23T08:02:47.559Z,101215.94
2023-09-23T08:05:14.222Z,101221.34
2023-09-23T08:07:40.699Z,101233.03
2023-09-23T08:10:07.384Z,101225.34
2023-09-23T08:12:35.671Z,101233.09
2023-09-23T08:15:02.174Z,101233.34
2023-09-23T08:17:28.716Z,101237.72
2023-09-23T08:19:55.271Z,101244.63
2023-09-23T08:22:21.864Z,101239.44
2023-09-23T08:24:48.342Z,101248.44
2023-09-23T08:27:14.922Z,101255.84
2023-09-23T08:29:41.338Z,101254.59
2023-09-23T08:32:07.908Z,101261.28
2023-09-23T08:34:34.777Z,101266.47
2023-09-23T08:37:01.830Z,101276.06
2023-09-23T08:39:28.305Z,101277.31
2023-09-23T08:41:55.966Z,101284.84
2023-09-23T08:44:23.867Z,101281.53
2023-09-23T08:46:53.920Z,101288.81
2023-09-23T08:49:24.893Z,101289.88
2023-09-23T08:51:56.402Z,101294.69
2023-09-23T08:54:26.504Z,101299.28
2023-09-23T08:56:55.480Z,101308.03
2023-09-23T08:59:22.163Z,101311.56
2023-09-23T09:01:48.675Z,101304.25
2023-09-23T09:04:16.281Z,101304.06
2023-09-23T09:06:54.227Z,101300.31
2023-09-23T09:09:20.949Z,101312.22
2023-09-23T09:11:54.804Z,101313.66
2023-09-23T09:14:23.877Z,101323.69
2023-09-23T09:16:50.503Z,101323.91
2023-09-23T09:19:17.666Z,101332.66
2023-09-23T09:21:44.086Z,101331.00
2023-09-23T09:24:10.673Z,101330.81
2023-09-23T09:26:39.201Z,101337.28
2023-09-23T09:29:05.906Z,101344.56
2023-09-23T09:31:36.567Z,101356.69
2023-09-23T09:34:10.763Z,101353.16
2023-09-23T09:36:41.495Z,101361.72
2023-09-23T09:39:11.822Z,101356.69
2023-09-23T09:41:52.023Z,101348.16
2023-09-23T09:44:22.541Z,101354.63
2023-09-23T09:46:50.051Z,101350.47
2023-09-23T09:49:18.067Z,101361.56
2023-09-23T09:51:52.684Z,101359.66
2023-09-23T09:54:22.000Z,101363.22
2023-09-23T09:56:51.188Z,101357.38
2023-09-23T09:59:30.153Z,101359.69
2023-09-23T10:01:58.488Z,101364.72
2023-09-23T10:04:31.775Z,101360.53
2023-09-23T10:06:58.232Z,101366.81
2023-09-23T10:09:28.377Z,101373.88
2023-09-23T10:11:57.364Z,101375.16
2023-09-23T10:14:24.112Z,101375.34
2023-09-23T10:16:53.143Z,101378.66
2023-09-23T10:19:49.068Z,101384.09
2023-09-23T10:22:22.244Z,101391.63
2023-09-23T10:25:05.641Z,101384.13
2023-09-23T10:27:33.582Z,101389.13
2023-09-23T10:30:01.746Z,101387.91
2023-09-23T10:32:28.281Z,101383.50
2023-09-23T10:34:59.978Z,101394.78
2023-09-23T10:37:34.208Z,101393.50
2023-09-23T10:40:10.097Z,101398.53
2023-09-23T10:42:36.757Z,101397.50
2023-09-23T10:45:04.371Z,101412.75
2023-09-23T10:47:30.963Z,101415.28
2023-09-23T10:49:57.953Z,101415.06
2023-09-23T10:52:24.375Z,101423.00
2023-09-23T10:54:50.987Z,101417.16
2023-09-23T10:57:17.433Z,101418.19
2023-09-23T10:59:46.740Z,101420.28
2023-09-23T11:02:14.339Z,101428.44
2023-09-23T11:04:49.711Z,101430.25
2023-09-23T11:07:17.838Z,101438.16
2023-09-23T11:09:47.762Z,101442.09
2023-09-23T11:12:16.405Z,101443.78
2023-09-23T11:14:46.680Z,101452.31
2023-09-23T11:17:30.697Z,101452.91
2023-09-23T11:19:59.530Z,101465.50
2023-09-23T11:22:31.960Z,101466.50
2023-09-23T11:24:59.209Z,101469.78
2023-09-23T11:27:26.840Z,101466.88
2023-09-23T11:29:54.335Z,101472.16
2023-09-23T11:32:25.819Z,101473.84
2023-09-23T11:34:53.657Z,101489.59
2023-09-23T11:37:21.986Z,101495.84
2023-09-23T11:39:48.440Z,101487.25
2023-09-23T11:42:14.806Z,101490.19
2023-09-23T11:44:41.379Z,101484.91
2023-09-23T11:47:07.865Z,101495.13
2023-09-23T11:49:34.348Z,101492.75
2023-09-23T11:52:00.794Z,101498.59
2023-09-23T11:54:27.269Z,101495.09
2023-09-23T11:56:53.685Z,101495.97
2023-09-23T11:59:22.305Z,101504.59
2023-09-23T12:01:51.584Z,101507.78
2023-09-23T12:04:18.118Z,101495.41
2023-09-23T12:06:46.535Z,101506.09
2023-09-23T12:09:13.062Z,101517.78
2023-09-23T12:11:39.643Z,101518.56
2023-09-23T12:14:06.222Z,101524.22
2023-09-23T12:16:32.607Z,101515.41
2023-09-23T12:18:59.013Z,101516.78
2023-09-23T12:21:25.601Z,101516.94
2023-09-23T12:23:59.446Z,101514.34
2023-09-23T12:26:27.370Z,101516.44
2023-09-23T12:28:54.332Z,101523.47
2023-09-23T12:31:20.901Z,101533.97
2023-09-23T12:33:47.531Z,101529.44
2023-09-23T12:36:13.995Z,101524.13
2023-09-23T12:38:40.660Z,101535.28
2023-09-23T12:41:07.331Z,101540.13
2023-09-23T12:43:33.992Z,101554.44
2023-09-23T12:46:00.644Z,101561.22
2023-09-23T12:48:27.249Z,101560.50
2023-09-23T12:50:53.734Z,101568.03
2023-09-23T12:53:20.840Z,101564.91
2023-09-23T12:55:47.448Z,101562.81
2023-09-23T12:58:14.368Z,101569.25
2023-09-23T13:00:42.636Z,101573.78
2023-09-23T13:03:12.619Z,101575.00
2023-09-23T13:05:39.637Z,101574.94
2023-09-23T13:08:07.007Z,101576.16
2023-09-23T13:10:36.774Z,101579.91
2023-09-23T13:13:04.094Z,101577.22
2023-09-23T13:15:30.604Z,101579.13
2023-09-23T13:17:57.781Z,101583.38
2023-09-23T13:20:24.621Z,101590.56
2023-09-23T13:22:51.089Z,101594.34
2023-09-23T13:25:17.573Z,101594.16
2023-09-23T13:27:44.026Z,101601.69
2023-09-23T13:30:10.961Z,101612.16
2023-09-23T13:32:40.330Z,101615.94
2023-09-23T13:35:13.083Z,101620.78
2023-09-23T13:37:39.954Z,101627.66
2023-09-23T13:40:07.041Z,101641.31
2023-09-23T13:42:33.595Z,101635.44
2023-09-23T13:45:00.631Z,101644.63
2023-09-23T13:47:27.424Z,101639.00
2023-09-23T13:49:53.899Z,101645.06
2023-09-23T13:52:20.491Z,101645.06
2023-09-23T13:54:47.169Z,101636.25
2023-09-23T13:57:13.736Z,101643.78
2023-09-23T13:59:40.460Z,101646.50
2023-09-23T14:02:13.358Z,101647.78
2023-09-23T14:04:39.746Z,101655.97
2023-09-23T14:07:06.178Z,101654.28
2023-09-23T14:09:33.829Z,101650.72
2023-09-23T14:12:01.625Z,101664.53
2023-09-23T14:14:28.307Z,101665.38
2023-09-23T14:16:54.870Z,101659.50
2023-09-23T14:19:21.320Z,101666.41
2023-09-23T14:21:47.982Z,101665.78
2023-09-23T14:24:14.970Z,101669.13
2023-09-23T14:26:41.659Z,101672.47
2023-09-23T14:29:08.193Z,101679.38
2023-09-23T14:31:34.810Z,101677.06
2023-09-23T14:34:02.779Z,101685.22
2023-09-23T14:36:29.196Z,101682.09
2023-09-23T14:38:55.574Z,101687.53
2023-09-23T14:41:22.079Z,101689.81
2023-09-23T14:43:48.582Z,101698.44
2023-09-23T14:46:15.176Z,101692.38
2023-09-23T14:48:41.712Z,101698.44
2023-09-23T14:51:08.104Z,101697.81
2023-09-23T14:53:34.505Z,101703.25
2023-09-23T14:56:00.964Z,101708.69
2023-09-23T14:58:27.411Z,101711.84
2023-09-23T15:00:53.796Z,101714.97
2023-09-23T15:03:20.248Z,101715.41
2023-09-23T15:05:47.366Z,101719.16
2023-09-23T15:08:13.943Z,101723.97
2023-09-23T15:10:40.517Z,101733.41
2023-09-23T15:13:06.986Z,101729.41
2023-09-23T15:15:33.524Z,101745.13
2023-09-23T15:18:00.076Z,101737.59
2023-09-23T15:20:26.620Z,101750.34
2023-09-23T15:22:53.064Z,101747.63
2023-09-23T15:25:19.557Z,101753.06
2023-09-23T15:27:45.966Z,101758.53
2023-09-23T15:30:12.781Z,101759.16
2023-09-23T15:32:39.389Z,101756.00
2023-09-23T15:35:07.876Z,101758.94
2023-09-23T15:37:35.720Z,101770.25
2023-09-23T15:40:02.291Z,101761.88
2023-09-23T15:42:31.486Z,101775.69
2023-09-23T15:44:58.451Z,101765.22
2023-09-23T15:47:25.072Z,101780.50
2023-09-23T15:49:51.566Z,101772.97
2023-09-23T15:52:18.580Z,101777.16
2023-09-23T15:54:45.019Z,101783.03
2023-09-23T15:57:14.084Z,101792.44
2023-09-23T15:59:40.650Z,101795.59
2023-09-23T16:02:07.646Z,101798.31
2023-09-23T16:04:34.909Z,101805.44
2023-09-23T16:07:01.441Z,101803.97
2023-09-23T16:09:27.945Z,101802.06
2023-09-23T16:11:54.385Z,101810.47
2023-09-23T16:14:20.954Z,101804.59
2023-09-23T16:16:47.526Z,101815.91
2023-09-23T16:19:14.159Z,101828.47
2023-09-23T16:21:40.616Z,101822.81
2023-09-23T16:24:07.347Z,101834.97
2023-09-23T16:26:35.189Z,101834.75
2023-09-23T16:29:02.112Z,101837.06
2023-09-23T16:31:28.740Z,101838.91
2023-09-23T16:33:56.273Z,101839.75
2023-09-23T16:36:24.390Z,101843.94
2023-09-23T16:38:51.688Z,101847.91
2023-09-23T16:41:18.114Z,101846.44
2023-09-23T16:43:46.281Z,101856.69
2023-09-23T16:46:12.866Z,101853.97
2023-09-23T16:48:39.386Z,101863.41
2023-09-23T16:51:05.811Z,101862.56
2023-09-23T16:53:33.353Z,101869.47
2023-09-23T16:56:00.044Z,101872.38
2023-09-23T16:58:26.535Z,101870.84
2023-09-23T17:00:53.915Z,101876.72
2023-09-23T17:03:22.442Z,101883.63
2023-09-23T17:05:53.255Z,101890.72
2023-09-23T17:08:19.676Z,101896.94
2023-09-23T17:10:46.192Z,101901.94
2023-09-23T17:13:15.390Z,101908.63
2023-09-23T17:15:42.753Z,101905.66
2023-09-23T17:18:09.396Z,101903.13
2023-09-23T17:20:36.011Z,101908.34
2023-09-23T17:23:02.679Z,101905.63
2023-09-23T17:25:29.167Z,101903.94
2023-09-23T17:27:55.599Z,101906.88
2023-09-23T17:30:22.949Z,101907.91
2023-09-23T17:32:49.633Z,101912.69
2023-09-23T17:35:17.709Z,101922.31
2023-09-23T17:37:44.122Z,101925.44
2023-09-23T17:40:10.784Z,101930.47
2023-09-23T17:42:37.171Z,101936.09
2023-09-23T17:45:03.924Z,101936.94
2023-09-23T17:47:30.370Z,101943.22
2023-09-23T17:49:57.216Z,101943.22
2023-09-23T17:52:23.675Z,101949.06
2023-09-23T17:54:50.188Z,101948.41
2023-09-23T17:57:16.779Z,101949.66
2023-09-23T17:59:43.278Z,101958.00
2023-09-23T18:02:09.952Z,101960.47
2023-09-23T18:04:36.667Z,101965.66
2023-09-23T18:07:04.887Z,101965.22
2023-09-23T18:09:31.381Z,101963.94
2023-09-23T18:11:57.934Z,101972.75
2023-09-23T18:14:24.480Z,101973.59
2023-09-23T18:16:50.945Z,101981.91
2023-09-23T18:19:17.462Z,101984.81
2023-09-23T18:21:44.095Z,101996.94
2023-09-23T18:24:10.708Z,101999.84
2023-09-23T18:26:38.052Z,101997.72
2023-09-23T18:29:04.697Z,102003.28
2023-09-23T18:31:33.301Z,102005.75
2023-09-23T18:33:59.904Z,102014.09
2023-09-23T18:36:26.420Z,102017.84
2023-09-23T18:38:53.105Z,102026.00
2023-09-23T18:41:19.782Z,102023.47
2023-09-23T18:43:46.512Z,102025.28
2023-09-23T18:46:13.626Z,102029.69
2023-09-23T18:48:40.329Z,102034.94
2023-09-23T18:51:06.864Z,102044.19
2023-09-23T18:53:33.997Z,102046.22
2023-09-23T18:56:02.569Z,102051.06
2023-09-23T18:58:29.071Z,102049.41
2023-09-23T19:00:55.654Z,102051.06
2023-09-23T19:03:22.232Z,102051.28
2023-09-23T19:05:49.966Z,102056.25
2023-09-23T19:08:16.698Z,102061.06
2023-09-23T19:10:43.235Z,102071.63
2023-09-23T19:13:09.704Z,102071.63
2023-09-23T19:15:36.174Z,102079.13
2023-09-23T19:18:02.982Z,102080.97
2023-09-23T19:20:29.740Z,102079.97
2023-09-23T19:22:56.157Z,102084.53
2023-09-23T19:25:22.957Z,102089.78
2023-09-23T19:27:49.543Z,102090.81
2023-09-23T19:30:16.384Z,102095.41
2023-09-23T19:32:43.113Z,102093.72
2023-09-23T19:35:10.218Z,102104.41
2023-09-23T19:37:38.663Z,102110.88
2023-09-23T19:40:06.455Z,102110.22
2023-09-23T19:42:34.092Z,102110.41
2023-09-23T19:45:03.822Z,102119.59
2023-09-23T19:47:31.946Z,102118.28
2023-09-23T19:50:00.434Z,102116.78
2023-09-23T19:52:30.216Z,102124.28
2023-09-23T19:54:57.131Z,102135.34
2023-09-23T19:57:23.742Z,102139.25
2023-09-23T19:59:50.312Z,102145.00
2023-09-23T20:02:17.047Z,102134.03
2023-09-23T20:04:46.126Z,102145.47
2023-09-23T20:07:13.696Z,102152.69
2023-09-23T20:09:41.469Z,102147.81
2023-09-23T20:12:08.518Z,102161.28
2023-09-23T20:14:35.041Z,102154.34
2023-09-23T20:17:03.945Z,102158.09
2023-09-23T20:19:30.798Z,102158.09
2023-09-23T20:21:57.293Z,102168.31
2023-09-23T20:24:24.255Z,102169.03
2023-09-23T20:26:54.083Z,102165.88
2023-09-23T20:29:23.593Z,102163.69
2023-09-23T20:31:50.239Z,102174.06
2023-09-23T20:34:20.076Z,102176.59
2023-09-23T20:36:46.564Z,102173.72
2023-09-23T20:39:13.217Z,102175.03
2023-09-23T20:41:39.997Z,102186.53
2023-09-23T20:44:06.668Z,102186.16
2023-09-23T20:46:33.786Z,102195.78
2023-09-23T20:49:01.499Z,102185.59
2023-09-23T20:51:27.962Z,102191.69
2023-09-23T20:53:55.741Z,102193.38
2023-09-23T20:56:22.439Z,102184.59
2023-09-23T20:58:48.922Z,102193.75
2023-09-23T21:01:15.430Z,102190.56
2023-09-23T21:03:42.855Z,102194.31
2023-09-23T21:06:09.944Z,102196.34
2023-09-23T21:08:36.486Z,102201.31
2023-09-23T21:11:03.066Z,102203.56
2023-09-23T21:13:29.568Z,102208.50
2023-09-23T21:16:06.095Z,102207.63
2023-09-23T21:18:32.771Z,102212.78
2023-09-23T21:20:59.352Z,102214.00
2023-09-23T21:23:26.023Z,102219.97
2023-09-23T21:25:56.076Z,102230.31
2023-09-23T21:28:22.495Z,102228.47
2023-09-23T21:30:49.142Z,102229.69
2023-09-23T21:33:15.849Z,102233.66
2023-09-23T21:35:42.525Z,102232.31
2023-09-23T21:38:09.213Z,102235.94
2023-09-23T21:40:42.036Z,102234.09
2023-09-23T21:43:09.022Z,102236.78
2023-09-23T21:45:35.505Z,102243.75
2023-09-23T21:48:05.050Z,102254.09
2023-09-23T21:50:31.511Z,102258.72
2023-09-23T21:52:58.016Z,102251.44
2023-09-23T21:55:24.478Z,102253.78
2023-09-23T21:57:50.890Z,102260.03
2023-09-23T22:00:27.803Z,102267.69
2023-09-23T22:02:59.714Z,102274.69
2023-09-23T22:05:27.718Z,102269.41
2023-09-23T22:08:01.741Z,102274.84
2023-09-23T22:10:28.903Z,102273.81
2023-09-23T22:12:56.688Z,102277.06
2023-09-23T22:15:24.382Z,102270.97
2023-09-23T22:17:50.995Z,102265.56
2023-09-23T22:20:20.900Z,102260.97
2023-09-23T22:22:48.094Z,102260.97
2023-09-23T22:25:27.066Z,102269.09
2023-09-23T22:27:54.473Z,102268.47
2023-09-23T22:30:25.601Z,102260.66
2023-09-23T22:32:57.206Z,102264.22
2023-09-23T22:35:25.330Z,102265.25
2023-09-23T22:37:52.375Z,102254.59
2023-09-23T22:40:18.892Z,102261.69
2023-09-23T22:42:45.383Z,102261.88
2023-09-23T22:45:23.704Z,102272.72
2023-09-23T22:48:02.580Z,102273.22
2023-09-23T22:50:29.645Z,102269.03
2023-09-23T22:52:57.240Z,102281.03
2023-09-23T22:55:25.146Z,102272.44
2023-09-23T22:57:55.433Z,102273.66
2023-09-23T23:00:26.688Z,102277.38
2023-09-23T23:02:54.193Z,102286.69
2023-09-23T23:05:20.986Z,102286.53
2023-09-23T23:07:53.698Z,102282.47
2023-09-23T23:10:20.738Z,102286.56
2023-09-23T23:12:47.749Z,102288.44
2023-09-23T23:15:16.369Z,102282.31
2023-09-23T23:17:47.019Z,102293.16
2023-09-23T23:20:16.215Z,102292.69
2023-09-23T23:22:42.994Z,102300.47
2023-09-23T23:25:11.030Z,102298.78
2023-09-23T23:27:37.445Z,102290.84
2023-09-23T23:30:04.703Z,102285.44
2023-09-23T23:32:31.309Z,102296.59
2023-09-23T23:34:59.045Z,102296.44
2023-09-23T23:37:25.795Z,102297.81
2023-09-23T23:39:52.289Z,102294.25
2023-09-23T23:42:18.849Z,102298.66
2023-09-23T23:44:52.283Z,102299.81
2023-09-23T23:47:22.196Z,102303.06
2023-09-23T23:49:50.993Z,102300.16
2023-09-23T23:52:18.422Z,102294.25
2023-09-23T23:54:45.496Z,102299.00
2023-09-23T23:57:14.056Z,102303.06
2023-09-23T23:59:41.351Z,102302.72
